Terminal Aerodrome Forecast
Issued by NWS

Home | Current Version | Previous Version | Text Only | Print | Product List | Glossary On
Versions: 1 2 3 4 5 6 7 8 9 10 11 12 13
260
FTUS45 KABQ 281630 AAA
TAFROW
TAF AMD
KROW 281630Z 2817/2912 03010KT P6SM BKN100
     FM282100 21022G32KT P6SM BKN100
     FM290100 29012G22KT P6SM VCSH SCT060 BKN080
     FM290500 32013KT P6SM -SHRA OVC050=

USA.gov is the U.S. government's official web portal to all federal, state and local government web resources and services.